sensor_id;sensor_type;location;lat;lon;timestamp;temperature;humidity
10654;DHT22;5375;51.250;6.776;2023-02-18T00:02:03;19.90;50.10
10654;DHT22;5375;51.250;6.776;2023-02-18T00:04:29;20.00;50.10
10654;DHT22;5375;51.250;6.776;2023-02-18T00:06:55;19.90;50.00
10654;DHT22;5375;51.250;6.776;2023-02-18T00:09:21;20.00;50.10
10654;DHT22;5375;51.250;6.776;2023-02-18T00:11:46;19.90;50.00
10654;DHT22;5375;51.250;6.776;2023-02-18T00:14:13;19.90;50.10
10654;DHT22;5375;51.250;6.776;2023-02-18T00:16:41;19.90;50.10
10654;DHT22;5375;51.250;6.776;2023-02-18T00:19:09;19.90;50.10
10654;DHT22;5375;51.250;6.776;2023-02-18T00:21:36;20.00;50.10
10654;DHT22;5375;51.250;6.776;2023-02-18T00:24:03;19.90;50.10
10654;DHT22;5375;51.250;6.776;2023-02-18T00:26:29;19.90;50.10
10654;DHT22;5375;51.250;6.776;2023-02-18T00:28:55;19.90;50.10
10654;DHT22;5375;51.250;6.776;2023-02-18T00:31:28;19.90;50.10
10654;DHT22;5375;51.250;6.776;2023-02-18T00:33:53;19.90;50.00
10654;DHT22;5375;51.250;6.776;2023-02-18T00:36:20;19.90;50.10
10654;DHT22;5375;51.250;6.776;2023-02-18T00:38:48;19.90;50.10
10654;DHT22;5375;51.250;6.776;2023-02-18T00:41:14;19.90;50.10
10654;DHT22;5375;51.250;6.776;2023-02-18T00:43:40;19.90;50.00
10654;DHT22;5375;51.250;6.776;2023-02-18T00:46:06;19.90;50.10
10654;DHT22;5375;51.250;6.776;2023-02-18T00:48:32;19.90;50.10
10654;DHT22;5375;51.250;6.776;2023-02-18T00:50:59;19.90;50.20
10654;DHT22;5375;51.250;6.776;2023-02-18T00:53:26;19.90;50.00
10654;DHT22;5375;51.250;6.776;2023-02-18T00:55:51;19.90;50.00
10654;DHT22;5375;51.250;6.776;2023-02-18T00:58:17;19.90;50.00
10654;DHT22;5375;51.250;6.776;2023-02-18T01:00:43;19.90;50.00
10654;DHT22;5375;51.250;6.776;2023-02-18T01:03:09;19.90;50.00
10654;DHT22;5375;51.250;6.776;2023-02-18T01:05:36;19.90;50.10
10654;DHT22;5375;51.250;6.776;2023-02-18T01:08:02;19.90;50.00
10654;DHT22;5375;51.250;6.776;2023-02-18T01:10:28;19.90;50.70
10654;DHT22;5375;51.250;6.776;2023-02-18T01:12:54;19.90;50.00
10654;DHT22;5375;51.250;6.776;2023-02-18T01:15:21;19.90;50.00
10654;DHT22;5375;51.250;6.776;2023-02-18T01:17:46;19.90;50.10
10654;DHT22;5375;51.250;6.776;2023-02-18T01:20:14;19.90;50.00
10654;DHT22;5375;51.250;6.776;2023-02-18T01:22:40;19.90;50.00
10654;DHT22;5375;51.250;6.776;2023-02-18T01:25:06;19.90;50.10
10654;DHT22;5375;51.250;6.776;2023-02-18T01:27:32;19.90;50.00
10654;DHT22;5375;51.250;6.776;2023-02-18T01:29:57;19.90;50.00
10654;DHT22;5375;51.250;6.776;2023-02-18T01:32:23;19.90;50.10
10654;DHT22;5375;51.250;6.776;2023-02-18T01:34:49;19.90;50.00
10654;DHT22;5375;51.250;6.776;2023-02-18T01:37:14;19.90;50.00
10654;DHT22;5375;51.250;6.776;2023-02-18T01:39:40;19.90;50.00
10654;DHT22;5375;51.250;6.776;2023-02-18T01:42:06;19.90;50.10
10654;DHT22;5375;51.250;6.776;2023-02-18T01:44:32;19.90;50.00
10654;DHT22;5375;51.250;6.776;2023-02-18T01:46:58;19.90;50.00
10654;DHT22;5375;51.250;6.776;2023-02-18T01:49:27;19.90;50.00
10654;DHT22;5375;51.250;6.776;2023-02-18T01:52:22;19.90;50.00
10654;DHT22;5375;51.250;6.776;2023-02-18T01:54:51;19.90;50.00
10654;DHT22;5375;51.250;6.776;2023-02-18T01:57:25;19.90;50.10
10654;DHT22;5375;51.250;6.776;2023-02-18T01:59:55;19.90;50.10
10654;DHT22;5375;51.250;6.776;2023-02-18T02:02:24;19.90;50.10
10654;DHT22;5375;51.250;6.776;2023-02-18T02:04:50;19.90;50.10
10654;DHT22;5375;51.250;6.776;2023-02-18T02:07:17;19.90;50.10
10654;DHT22;5375;51.250;6.776;2023-02-18T02:09:44;20.20;50.20
10654;DHT22;5375;51.250;6.776;2023-02-18T02:17:48;19.90;50.10
10654;DHT22;5375;51.250;6.776;2023-02-18T02:34:54;19.90;50.10
10654;DHT22;5375;51.250;6.776;2023-02-18T02:37:37;19.80;50.00
10654;DHT22;5375;51.250;6.776;2023-02-18T02:43:20;19.80;50.00
10654;DHT22;5375;51.250;6.776;2023-02-18T02:45:57;19.80;50.00
10654;DHT22;5375;51.250;6.776;2023-02-18T02:51:27;19.80;50.00
10654;DHT22;5375;51.250;6.776;2023-02-18T02:53:54;19.80;50.00
10654;DHT22;5375;51.250;6.776;2023-02-18T02:56:23;19.80;50.10
10654;DHT22;5375;51.250;6.776;2023-02-18T02:59:05;19.80;50.00
10654;DHT22;5375;51.250;6.776;2023-02-18T03:13:06;19.80;50.10
10654;DHT22;5375;51.250;6.776;2023-02-18T03:15:49;19.80;50.10
10654;DHT22;5375;51.250;6.776;2023-02-18T03:18:29;19.80;50.10
10654;DHT22;5375;51.250;6.776;2023-02-18T03:26:18;19.80;50.10
10654;DHT22;5375;51.250;6.776;2023-02-18T03:28:44;19.80;50.10
10654;DHT22;5375;51.250;6.776;2023-02-18T03:31:14;19.80;50.10
10654;DHT22;5375;51.250;6.776;2023-02-18T03:33:51;19.80;50.10
10654;DHT22;5375;51.250;6.776;2023-02-18T03:36:20;19.80;50.10
10654;DHT22;5375;51.250;6.776;2023-02-18T03:41:19;19.80;50.10
10654;DHT22;5375;51.250;6.776;2023-02-18T03:43:52;19.80;50.10
10654;DHT22;5375;51.250;6.776;2023-02-18T03:46:20;19.80;50.80
10654;DHT22;5375;51.250;6.776;2023-02-18T03:48:45;19.80;50.10
10654;DHT22;5375;51.250;6.776;2023-02-18T03:51:11;19.80;50.10
10654;DHT22;5375;51.250;6.776;2023-02-18T03:53:37;19.80;50.10
10654;DHT22;5375;51.250;6.776;2023-02-18T03:56:03;19.80;50.10
10654;DHT22;5375;51.250;6.776;2023-02-18T03:58:28;19.80;50.10
10654;DHT22;5375;51.250;6.776;2023-02-18T04:00:54;19.80;50.10
10654;DHT22;5375;51.250;6.776;2023-02-18T04:03:19;19.80;50.10
10654;DHT22;5375;51.250;6.776;2023-02-18T04:05:45;19.80;50.10
10654;DHT22;5375;51.250;6.776;2023-02-18T04:08:12;19.80;50.10
10654;DHT22;5375;51.250;6.776;2023-02-18T04:10:38;19.80;50.10
10654;DHT22;5375;51.250;6.776;2023-02-18T04:13:03;19.80;50.10
10654;DHT22;5375;51.250;6.776;2023-02-18T04:15:29;19.80;50.10
10654;DHT22;5375;51.250;6.776;2023-02-18T04:17:55;19.80;50.10
10654;DHT22;5375;51.250;6.776;2023-02-18T04:20:22;19.80;50.10
10654;DHT22;5375;51.250;6.776;2023-02-18T04:22:48;19.80;50.10
10654;DHT22;5375;51.250;6.776;2023-02-18T04:25:14;19.80;50.10
10654;DHT22;5375;51.250;6.776;2023-02-18T04:27:39;19.80;50.10
10654;DHT22;5375;51.250;6.776;2023-02-18T04:30:07;19.80;50.10
10654;DHT22;5375;51.250;6.776;2023-02-18T04:32:32;19.70;50.10
10654;DHT22;5375;51.250;6.776;2023-02-18T04:34:58;19.80;50.10
10654;DHT22;5375;51.250;6.776;2023-02-18T04:37:24;19.80;50.10
10654;DHT22;5375;51.250;6.776;2023-02-18T04:39:50;19.80;50.20
10654;DHT22;5375;51.250;6.776;2023-02-18T04:42:15;19.80;50.20
10654;DHT22;5375;51.250;6.776;2023-02-18T04:44:41;19.80;50.20
10654;DHT22;5375;51.250;6.776;2023-02-18T04:47:06;19.80;50.20
10654;DHT22;5375;51.250;6.776;2023-02-18T04:49:33;19.80;50.20
10654;DHT22;5375;51.250;6.776;2023-02-18T04:51:58;19.80;50.20
10654;DHT22;5375;51.250;6.776;2023-02-18T04:54:24;19.80;50.20
10654;DHT22;5375;51.250;6.776;2023-02-18T04:56:50;19.80;50.20
10654;DHT22;5375;51.250;6.776;2023-02-18T04:59:15;19.80;50.20
10654;DHT22;5375;51.250;6.776;2023-02-18T05:01:41;19.80;50.20
10654;DHT22;5375;51.250;6.776;2023-02-18T05:04:07;19.80;50.20
10654;DHT22;5375;51.250;6.776;2023-02-18T05:06:32;19.80;50.20
10654;DHT22;5375;51.250;6.776;2023-02-18T05:08:58;19.80;50.30
10654;DHT22;5375;51.250;6.776;2023-02-18T05:11:24;19.80;50.30
10654;DHT22;5375;51.250;6.776;2023-02-18T05:13:49;19.80;50.30
10654;DHT22;5375;51.250;6.776;2023-02-18T05:16:15;19.80;50.30
10654;DHT22;5375;51.250;6.776;2023-02-18T05:18:41;19.80;50.30
10654;DHT22;5375;51.250;6.776;2023-02-18T05:21:07;19.80;50.30
10654;DHT22;5375;51.250;6.776;2023-02-18T05:23:32;19.90;50.40
10654;DHT22;5375;51.250;6.776;2023-02-18T05:25:58;20.90;50.90
10654;DHT22;5375;51.250;6.776;2023-02-18T05:28:24;19.90;50.40
10654;DHT22;5375;51.250;6.776;2023-02-18T05:30:50;19.90;50.40
10654;DHT22;5375;51.250;6.776;2023-02-18T05:33:15;19.90;50.40
10654;DHT22;5375;51.250;6.776;2023-02-18T05:35:41;19.90;50.40
10654;DHT22;5375;51.250;6.776;2023-02-18T05:38:08;19.90;50.40
10654;DHT22;5375;51.250;6.776;2023-02-18T05:40:34;19.90;50.40
10654;DHT22;5375;51.250;6.776;2023-02-18T05:43:00;19.90;50.40
10654;DHT22;5375;51.250;6.776;2023-02-18T05:45:25;19.90;50.50
10654;DHT22;5375;51.250;6.776;2023-02-18T05:47:51;19.90;50.40
10654;DHT22;5375;51.250;6.776;2023-02-18T05:50:17;19.90;50.40
10654;DHT22;5375;51.250;6.776;2023-02-18T05:52:42;19.90;50.40
10654;DHT22;5375;51.250;6.776;2023-02-18T05:55:08;19.90;50.50
10654;DHT22;5375;51.250;6.776;2023-02-18T05:57:33;19.90;50.50
10654;DHT22;5375;51.250;6.776;2023-02-18T05:59:59;19.90;50.50
10654;DHT22;5375;51.250;6.776;2023-02-18T06:02:25;19.90;50.50
10654;DHT22;5375;51.250;6.776;2023-02-18T06:04:51;19.90;50.60
10654;DHT22;5375;51.250;6.776;2023-02-18T06:07:16;19.90;50.50
10654;DHT22;5375;51.250;6.776;2023-02-18T06:09:45;19.90;50.60
10654;DHT22;5375;51.250;6.776;2023-02-18T06:12:10;19.90;50.70
10654;DHT22;5375;51.250;6.776;2023-02-18T06:14:37;19.90;50.70
10654;DHT22;5375;51.250;6.776;2023-02-18T06:17:02;19.90;50.70
10654;DHT22;5375;51.250;6.776;2023-02-18T06:19:28;19.90;50.70
10654;DHT22;5375;51.250;6.776;2023-02-18T06:21:53;19.90;50.70
10654;DHT22;5375;51.250;6.776;2023-02-18T06:24:20;19.90;50.70
10654;DHT22;5375;51.250;6.776;2023-02-18T06:26:46;19.90;50.60
10654;DHT22;5375;51.250;6.776;2023-02-18T06:29:11;19.90;50.60
10654;DHT22;5375;51.250;6.776;2023-02-18T06:31:37;19.90;50.70
10654;DHT22;5375;51.250;6.776;2023-02-18T06:34:02;20.00;50.60
10654;DHT22;5375;51.250;6.776;2023-02-18T06:36:28;19.90;50.50
10654;DHT22;5375;51.250;6.776;2023-02-18T06:38:54;20.00;50.60
10654;DHT22;5375;51.250;6.776;2023-02-18T06:41:22;19.90;50.50
10654;DHT22;5375;51.250;6.776;2023-02-18T06:43:47;19.90;50.50
10654;DHT22;5375;51.250;6.776;2023-02-18T06:46:13;19.90;50.50
10654;DHT22;5375;51.250;6.776;2023-02-18T06:48:38;20.00;50.50
10654;DHT22;5375;51.250;6.776;2023-02-18T06:51:05;19.90;50.50
10654;DHT22;5375;51.250;6.776;2023-02-18T06:53:31;19.90;50.50
10654;DHT22;5375;51.250;6.776;2023-02-18T06:55:57;19.90;50.40
10654;DHT22;5375;51.250;6.776;2023-02-18T06:58:22;20.00;50.50
10654;DHT22;5375;51.250;6.776;2023-02-18T07:00:48;20.00;50.50
10654;DHT22;5375;51.250;6.776;2023-02-18T07:03:14;19.90;50.40
10654;DHT22;5375;51.250;6.776;2023-02-18T07:05:40;19.90;50.40
10654;DHT22;5375;51.250;6.776;2023-02-18T07:08:07;19.90;50.40
10654;DHT22;5375;51.250;6.776;2023-02-18T07:10:32;19.90;50.40
10654;DHT22;5375;51.250;6.776;2023-02-18T07:12:58;19.90;50.50
10654;DHT22;5375;51.250;6.776;2023-02-18T07:15:23;19.90;50.50
10654;DHT22;5375;51.250;6.776;2023-02-18T07:17:51;19.90;50.60
10654;DHT22;5375;51.250;6.776;2023-02-18T07:20:17;20.00;50.70
10654;DHT22;5375;51.250;6.776;2023-02-18T07:22:43;19.90;50.70
10654;DHT22;5375;51.250;6.776;2023-02-18T07:25:09;19.90;50.70
10654;DHT22;5375;51.250;6.776;2023-02-18T07:27:34;19.90;50.80
10654;DHT22;5375;51.250;6.776;2023-02-18T07:30:00;20.00;50.90
10654;DHT22;5375;51.250;6.776;2023-02-18T07:32:25;20.00;51.10
10654;DHT22;5375;51.250;6.776;2023-02-18T07:34:51;20.00;51.20
10654;DHT22;5375;51.250;6.776;2023-02-18T07:37:21;20.00;51.10
10654;DHT22;5375;51.250;6.776;2023-02-18T07:39:46;19.90;51.30
10654;DHT22;5375;51.250;6.776;2023-02-18T07:42:12;20.00;51.30
10654;DHT22;5375;51.250;6.776;2023-02-18T07:44:39;20.00;51.30
10654;DHT22;5375;51.250;6.776;2023-02-18T07:47:06;20.00;51.40
10654;DHT22;5375;51.250;6.776;2023-02-18T07:49:33;20.00;51.30
10654;DHT22;5375;51.250;6.776;2023-02-18T07:51:59;20.00;51.20
10654;DHT22;5375;51.250;6.776;2023-02-18T07:54:26;20.00;51.20
10654;DHT22;5375;51.250;6.776;2023-02-18T07:56:52;20.00;51.20
10654;DHT22;5375;51.250;6.776;2023-02-18T07:59:19;20.00;51.30
10654;DHT22;5375;51.250;6.776;2023-02-18T08:01:45;19.90;51.20
10654;DHT22;5375;51.250;6.776;2023-02-18T08:04:10;20.00;51.30
10654;DHT22;5375;51.250;6.776;2023-02-18T08:06:38;20.00;51.30
10654;DHT22;5375;51.250;6.776;2023-02-18T08:09:05;20.00;51.30
10654;DHT22;5375;51.250;6.776;2023-02-18T08:11:33;20.00;51.30
10654;DHT22;5375;51.250;6.776;2023-02-18T08:13:59;20.00;51.20
10654;DHT22;5375;51.250;6.776;2023-02-18T08:16:25;20.00;51.20
10654;DHT22;5375;51.250;6.776;2023-02-18T08:18:51;20.00;51.20
10654;DHT22;5375;51.250;6.776;2023-02-18T08:21:19;20.00;51.20
10654;DHT22;5375;51.250;6.776;2023-02-18T08:23:46;20.00;51.20
10654;DHT22;5375;51.250;6.776;2023-02-18T08:26:12;20.00;51.20
10654;DHT22;5375;51.250;6.776;2023-02-18T08:28:38;20.00;51.10
10654;DHT22;5375;51.250;6.776;2023-02-18T08:31:04;20.00;51.10
10654;DHT22;5375;51.250;6.776;2023-02-18T08:33:31;20.00;51.10
10654;DHT22;5375;51.250;6.776;2023-02-18T08:35:58;20.00;51.20
10654;DHT22;5375;51.250;6.776;2023-02-18T08:38:23;20.00;51.10
10654;DHT22;5375;51.250;6.776;2023-02-18T08:40:50;20.00;51.10
10654;DHT22;5375;51.250;6.776;2023-02-18T08:43:16;20.00;51.20
10654;DHT22;5375;51.250;6.776;2023-02-18T08:45:46;20.00;51.10
10654;DHT22;5375;51.250;6.776;2023-02-18T08:50:54;19.20;50.00
10654;DHT22;5375;51.250;6.776;2023-02-18T08:53:26;20.00;51.00
10654;DHT22;5375;51.250;6.776;2023-02-18T08:55:57;20.00;51.00
10654;DHT22;5375;51.250;6.776;2023-02-18T08:58:30;20.00;50.90
10654;DHT22;5375;51.250;6.776;2023-02-18T09:03:43;20.00;50.80
10654;DHT22;5375;51.250;6.776;2023-02-18T09:06:08;20.00;50.80
10654;DHT22;5375;51.250;6.776;2023-02-18T09:08:34;20.00;50.90
10654;DHT22;5375;51.250;6.776;2023-02-18T09:11:02;20.00;50.80
10654;DHT22;5375;51.250;6.776;2023-02-18T09:13:32;20.00;50.80
10654;DHT22;5375;51.250;6.776;2023-02-18T09:16:15;20.00;50.80
10654;DHT22;5375;51.250;6.776;2023-02-18T09:18:48;20.00;50.90
10654;DHT22;5375;51.250;6.776;2023-02-18T09:21:17;20.00;50.90
10654;DHT22;5375;51.250;6.776;2023-02-18T09:23:45;20.00;51.00
10654;DHT22;5375;51.250;6.776;2023-02-18T09:26:13;20.00;51.00
10654;DHT22;5375;51.250;6.776;2023-02-18T09:28:39;20.00;51.00
10654;DHT22;5375;51.250;6.776;2023-02-18T09:31:07;20.00;50.90
10654;DHT22;5375;51.250;6.776;2023-02-18T09:33:42;20.00;50.80
10654;DHT22;5375;51.250;6.776;2023-02-18T09:36:08;20.00;50.80
10654;DHT22;5375;51.250;6.776;2023-02-18T09:38:34;20.00;50.80
10654;DHT22;5375;51.250;6.776;2023-02-18T09:41:01;20.00;50.70
10654;DHT22;5375;51.250;6.776;2023-02-18T09:43:35;20.00;50.70
10654;DHT22;5375;51.250;6.776;2023-02-18T09:46:04;20.00;50.70
10654;DHT22;5375;51.250;6.776;2023-02-18T09:48:47;20.00;50.70
10654;DHT22;5375;51.250;6.776;2023-02-18T09:51:17;20.00;50.60
10654;DHT22;5375;51.250;6.776;2023-02-18T09:53:44;20.00;50.60
10654;DHT22;5375;51.250;6.776;2023-02-18T09:56:17;20.00;50.60
10654;DHT22;5375;51.250;6.776;2023-02-18T09:58:46;20.00;50.60
10654;DHT22;5375;51.250;6.776;2023-02-18T10:01:31;20.00;50.70
10654;DHT22;5375;51.250;6.776;2023-02-18T10:04:01;20.00;50.60
10654;DHT22;5375;51.250;6.776;2023-02-18T10:06:31;20.00;50.60
10654;DHT22;5375;51.250;6.776;2023-02-18T10:09:20;20.00;50.60
10654;DHT22;5375;51.250;6.776;2023-02-18T10:11:57;20.00;50.60
10654;DHT22;5375;51.250;6.776;2023-02-18T10:14:26;19.90;50.50
10654;DHT22;5375;51.250;6.776;2023-02-18T10:16:53;19.90;50.50
10654;DHT22;5375;51.250;6.776;2023-02-18T10:19:35;19.90;50.50
10654;DHT22;5375;51.250;6.776;2023-02-18T10:22:05;20.00;50.50
10654;DHT22;5375;51.250;6.776;2023-02-18T10:24:34;19.90;50.50
10654;DHT22;5375;51.250;6.776;2023-02-18T10:27:05;20.00;50.50
10654;DHT22;5375;51.250;6.776;2023-02-18T10:29:32;19.90;50.50
10654;DHT22;5375;51.250;6.776;2023-02-18T10:32:11;19.90;50.50
10654;DHT22;5375;51.250;6.776;2023-02-18T10:43:13;19.90;50.40
10654;DHT22;5375;51.250;6.776;2023-02-18T10:46:02;19.90;50.50
10654;DHT22;5375;51.250;6.776;2023-02-18T10:51:20;19.90;51.10
10654;DHT22;5375;51.250;6.776;2023-02-18T10:53:48;19.90;50.40
10654;DHT22;5375;51.250;6.776;2023-02-18T11:01:39;19.90;50.40
10654;DHT22;5375;51.250;6.776;2023-02-18T11:04:13;19.90;50.40
10654;DHT22;5375;51.250;6.776;2023-02-18T11:06:51;19.90;50.40
10654;DHT22;5375;51.250;6.776;2023-02-18T11:11:59;19.90;50.40
10654;DHT22;5375;51.250;6.776;2023-02-18T11:14:45;19.90;50.40
10654;DHT22;5375;51.250;6.776;2023-02-18T11:17:23;19.90;50.40
10654;DHT22;5375;51.250;6.776;2023-02-18T11:19:58;19.90;50.40
10654;DHT22;5375;51.250;6.776;2023-02-18T11:22:29;19.90;50.40
10654;DHT22;5375;51.250;6.776;2023-02-18T11:25:00;19.90;50.40
10654;DHT22;5375;51.250;6.776;2023-02-18T11:27:43;20.00;50.50
10654;DHT22;5375;51.250;6.776;2023-02-18T11:30:37;19.90;50.30
10654;DHT22;5375;51.250;6.776;2023-02-18T11:35:55;19.90;50.40
10654;DHT22;5375;51.250;6.776;2023-02-18T11:38:34;19.90;50.40
10654;DHT22;5375;51.250;6.776;2023-02-18T11:41:06;19.90;50.30
10654;DHT22;5375;51.250;6.776;2023-02-18T11:43:34;19.90;50.40
10654;DHT22;5375;51.250;6.776;2023-02-18T11:46:15;19.90;50.40
10654;DHT22;5375;51.250;6.776;2023-02-18T11:48:41;19.90;50.30
10654;DHT22;5375;51.250;6.776;2023-02-18T11:51:25;19.90;50.30
10654;DHT22;5375;51.250;6.776;2023-02-18T11:54:31;19.90;50.30
10654;DHT22;5375;51.250;6.776;2023-02-18T11:57:02;19.90;50.20
10654;DHT22;5375;51.250;6.776;2023-02-18T11:59:31;19.90;50.30
10654;DHT22;5375;51.250;6.776;2023-02-18T12:04:46;19.90;50.30
10654;DHT22;5375;51.250;6.776;2023-02-18T12:10:27;19.90;50.30
10654;DHT22;5375;51.250;6.776;2023-02-18T12:12:59;19.90;50.30
10654;DHT22;5375;51.250;6.776;2023-02-18T12:15:34;19.90;50.30
10654;DHT22;5375;51.250;6.776;2023-02-18T12:18:17;19.90;50.30
10654;DHT22;5375;51.250;6.776;2023-02-18T12:34:56;19.90;50.30
10654;DHT22;5375;51.250;6.776;2023-02-18T12:43:07;19.90;50.40
10654;DHT22;5375;51.250;6.776;2023-02-18T13:11:22;19.90;50.60
10654;DHT22;5375;51.250;6.776;2023-02-18T13:16:31;19.90;50.70
10654;DHT22;5375;51.250;6.776;2023-02-18T13:21:44;19.90;50.80
10654;DHT22;5375;51.250;6.776;2023-02-18T13:26:45;19.90;51.10
10654;DHT22;5375;51.250;6.776;2023-02-18T13:29:27;19.90;50.90
10654;DHT22;5375;51.250;6.776;2023-02-18T13:32:19;19.90;51.00
10654;DHT22;5375;51.250;6.776;2023-02-18T13:34:56;19.90;51.00
10654;DHT22;5375;51.250;6.776;2023-02-18T13:38:02;19.90;51.00
10654;DHT22;5375;51.250;6.776;2023-02-18T13:40:36;19.90;51.00
10654;DHT22;5375;51.250;6.776;2023-02-18T13:45:42;19.90;51.10
10654;DHT22;5375;51.250;6.776;2023-02-18T13:48:25;20.00;51.20
10654;DHT22;5375;51.250;6.776;2023-02-18T13:50:51;20.00;51.20
10654;DHT22;5375;51.250;6.776;2023-02-18T13:53:22;19.90;51.10
10654;DHT22;5375;51.250;6.776;2023-02-18T13:56:04;19.90;51.10
10654;DHT22;5375;51.250;6.776;2023-02-18T13:58:47;19.90;51.20
10654;DHT22;5375;51.250;6.776;2023-02-18T14:01:14;20.00;51.20
10654;DHT22;5375;51.250;6.776;2023-02-18T14:08:48;20.00;51.30
10654;DHT22;5375;51.250;6.776;2023-02-18T14:13:54;19.90;51.30
10654;DHT22;5375;51.250;6.776;2023-02-18T14:17:40;20.00;51.40
10654;DHT22;5375;51.250;6.776;2023-02-18T14:19:33;20.00;51.40
10654;DHT22;5375;51.250;6.776;2023-02-18T14:23:00;20.00;51.60
10654;DHT22;5375;51.250;6.776;2023-02-18T14:27:32;20.00;51.60
10654;DHT22;5375;51.250;6.776;2023-02-18T14:30:14;20.00;51.70
10654;DHT22;5375;51.250;6.776;2023-02-18T14:32:42;20.00;51.70
10654;DHT22;5375;51.250;6.776;2023-02-18T14:35:38;20.00;51.70
10654;DHT22;5375;51.250;6.776;2023-02-18T14:39:01;20.00;51.70
10654;DHT22;5375;51.250;6.776;2023-02-18T14:49:43;20.00;51.80
10654;DHT22;5375;51.250;6.776;2023-02-18T14:52:28;20.00;51.80
10654;DHT22;5375;51.250;6.776;2023-02-18T14:54:55;20.00;51.80
10654;DHT22;5375;51.250;6.776;2023-02-18T14:57:30;20.00;51.90
10654;DHT22;5375;51.250;6.776;2023-02-18T14:59:58;20.00;51.90
10654;DHT22;5375;51.250;6.776;2023-02-18T15:02:26;20.00;51.90
10654;DHT22;5375;51.250;6.776;2023-02-18T15:05:14;20.00;51.90
10654;DHT22;5375;51.250;6.776;2023-02-18T15:07:41;20.00;51.80
10654;DHT22;5375;51.250;6.776;2023-02-18T15:10:13;20.00;51.80
10654;DHT22;5375;51.250;6.776;2023-02-18T15:12:39;20.00;51.70
10654;DHT22;5375;51.250;6.776;2023-02-18T15:15:05;20.00;51.70
10654;DHT22;5375;51.250;6.776;2023-02-18T15:17:31;20.00;51.70
10654;DHT22;5375;51.250;6.776;2023-02-18T15:20:01;20.00;51.80
10654;DHT22;5375;51.250;6.776;2023-02-18T15:22:31;20.00;51.70
10654;DHT22;5375;51.250;6.776;2023-02-18T15:24:58;20.00;51.70
10654;DHT22;5375;51.250;6.776;2023-02-18T15:27:33;20.00;51.70
10654;DHT22;5375;51.250;6.776;2023-02-18T15:30:28;20.00;51.70
10654;DHT22;5375;51.250;6.776;2023-02-18T15:32:57;20.00;51.60
10654;DHT22;5375;51.250;6.776;2023-02-18T15:35:26;20.00;51.70
10654;DHT22;5375;51.250;6.776;2023-02-18T15:37:56;20.00;51.60
10654;DHT22;5375;51.250;6.776;2023-02-18T15:40:27;20.00;51.60
10654;DHT22;5375;51.250;6.776;2023-02-18T15:42:58;20.00;51.60
10654;DHT22;5375;51.250;6.776;2023-02-18T15:45:35;20.00;51.50
10654;DHT22;5375;51.250;6.776;2023-02-18T15:48:03;20.00;51.50
10654;DHT22;5375;51.250;6.776;2023-02-18T15:50:34;20.00;51.50
10654;DHT22;5375;51.250;6.776;2023-02-18T15:53:06;20.00;51.40
10654;DHT22;5375;51.250;6.776;2023-02-18T15:55:37;20.00;51.40
10654;DHT22;5375;51.250;6.776;2023-02-18T15:58:12;20.00;51.40
10654;DHT22;5375;51.250;6.776;2023-02-18T16:00:49;20.00;51.40
10654;DHT22;5375;51.250;6.776;2023-02-18T16:03:23;20.00;51.40
10654;DHT22;5375;51.250;6.776;2023-02-18T16:05:50;20.00;51.40
10654;DHT22;5375;51.250;6.776;2023-02-18T16:08:25;20.00;51.40
10654;DHT22;5375;51.250;6.776;2023-02-18T16:11:03;20.00;51.40
10654;DHT22;5375;51.250;6.776;2023-02-18T16:13:31;20.00;51.30
10654;DHT22;5375;51.250;6.776;2023-02-18T16:15:57;20.00;51.30
10654;DHT22;5375;51.250;6.776;2023-02-18T16:18:39;20.00;51.30
10654;DHT22;5375;51.250;6.776;2023-02-18T16:23:58;20.00;51.30
10654;DHT22;5375;51.250;6.776;2023-02-18T16:26:31;20.00;51.30
10654;DHT22;5375;51.250;6.776;2023-02-18T16:29:15;20.00;51.30
10654;DHT22;5375;51.250;6.776;2023-02-18T16:31:41;20.00;51.30
10654;DHT22;5375;51.250;6.776;2023-02-18T16:34:07;20.00;51.30
10654;DHT22;5375;51.250;6.776;2023-02-18T16:36:33;20.00;51.30
10654;DHT22;5375;51.250;6.776;2023-02-18T16:38:59;20.00;51.30
10654;DHT22;5375;51.250;6.776;2023-02-18T16:41:27;19.90;51.20
10654;DHT22;5375;51.250;6.776;2023-02-18T16:43:53;20.00;51.20
10654;DHT22;5375;51.250;6.776;2023-02-18T16:46:21;19.90;51.20
10654;DHT22;5375;51.250;6.776;2023-02-18T16:48:54;20.00;51.30
10654;DHT22;5375;51.250;6.776;2023-02-18T16:51:31;20.00;51.20
10654;DHT22;5375;51.250;6.776;2023-02-18T16:53:59;20.00;51.20
10654;DHT22;5375;51.250;6.776;2023-02-18T16:56:28;19.90;51.20
10654;DHT22;5375;51.250;6.776;2023-02-18T16:58:55;20.00;51.30
10654;DHT22;5375;51.250;6.776;2023-02-18T17:01:27;20.00;51.30
10654;DHT22;5375;51.250;6.776;2023-02-18T17:03:54;20.00;51.20
10654;DHT22;5375;51.250;6.776;2023-02-18T17:06:20;19.90;51.20
10654;DHT22;5375;51.250;6.776;2023-02-18T17:08:46;19.90;51.20
10654;DHT22;5375;51.250;6.776;2023-02-18T17:11:22;20.00;51.20
10654;DHT22;5375;51.250;6.776;2023-02-18T17:13:50;20.00;51.20
10654;DHT22;5375;51.250;6.776;2023-02-18T17:16:18;20.00;51.20
10654;DHT22;5375;51.250;6.776;2023-02-18T17:18:45;19.90;51.10
10654;DHT22;5375;51.250;6.776;2023-02-18T17:21:17;20.00;51.20
10654;DHT22;5375;51.250;6.776;2023-02-18T17:23:44;20.00;51.20
10654;DHT22;5375;51.250;6.776;2023-02-18T17:28:41;20.00;51.20
10654;DHT22;5375;51.250;6.776;2023-02-18T17:31:11;20.00;51.20
10654;DHT22;5375;51.250;6.776;2023-02-18T17:33:38;20.00;51.20
10654;DHT22;5375;51.250;6.776;2023-02-18T17:36:04;19.90;51.10
10654;DHT22;5375;51.250;6.776;2023-02-18T17:38:31;19.90;51.10
10654;DHT22;5375;51.250;6.776;2023-02-18T17:40:58;19.90;51.10
10654;DHT22;5375;51.250;6.776;2023-02-18T17:43:27;20.00;51.20
10654;DHT22;5375;51.250;6.776;2023-02-18T17:45:55;19.90;51.10
10654;DHT22;5375;51.250;6.776;2023-02-18T17:48:22;19.90;51.10
10654;DHT22;5375;51.250;6.776;2023-02-18T17:50:48;19.90;51.10
10654;DHT22;5375;51.250;6.776;2023-02-18T17:53:16;19.90;51.10
10654;DHT22;5375;51.250;6.776;2023-02-18T17:55:43;19.90;51.10
10654;DHT22;5375;51.250;6.776;2023-02-18T17:58:10;19.90;51.00
10654;DHT22;5375;51.250;6.776;2023-02-18T18:00:38;19.90;51.10
10654;DHT22;5375;51.250;6.776;2023-02-18T18:03:04;20.00;51.10
10654;DHT22;5375;51.250;6.776;2023-02-18T18:05:32;19.90;51.00
10654;DHT22;5375;51.250;6.776;2023-02-18T18:07:59;19.90;51.00
10654;DHT22;5375;51.250;6.776;2023-02-18T18:10:26;19.90;51.00
10654;DHT22;5375;51.250;6.776;2023-02-18T18:12:58;19.90;51.00
10654;DHT22;5375;51.250;6.776;2023-02-18T18:15:38;19.90;51.00
10654;DHT22;5375;51.250;6.776;2023-02-18T18:18:04;19.90;51.00
10654;DHT22;5375;51.250;6.776;2023-02-18T18:20:32;19.90;51.00
10654;DHT22;5375;51.250;6.776;2023-02-18T18:23:00;19.90;51.00
10654;DHT22;5375;51.250;6.776;2023-02-18T18:25:29;19.90;51.00
10654;DHT22;5375;51.250;6.776;2023-02-18T18:27:55;19.90;51.00
10654;DHT22;5375;51.250;6.776;2023-02-18T18:30:26;19.90;51.10
10654;DHT22;5375;51.250;6.776;2023-02-18T18:32:52;19.90;51.00
10654;DHT22;5375;51.250;6.776;2023-02-18T18:35:32;19.90;51.00
10654;DHT22;5375;51.250;6.776;2023-02-18T18:38:00;19.90;51.00
10654;DHT22;5375;51.250;6.776;2023-02-18T18:40:28;19.90;51.00